CEB605 RPLC-RPVM
Flight info
| Callsign | CEB605 |
|---|---|
| Flight time | N/A |
| Altitude | 35000 |
| Route | OLIVA2E OLIVA W16 MIA B462 IPATA W25 BATAY BATAY3P |
| Aircraft | A321/L-V/N |
Departure
| Time | 2026-04-27 01:10 |
|---|---|
| Airport | Clark International Airport / Clark Air Base (RPLC) |
Arrival
| Time | N/A |
|---|---|
| Airport | Mactan Cebu International Airport (RPVM) |
| Time | Latitude | Longitude | Altitude | Speed | Heading |
|---|---|---|---|---|---|
| 2026-04-27 00:57 | 15.19554 | 120.56021 | 442 ft | 0 kts | 291° |
| 2026-04-27 01:01 | 15.19552 | 120.56027 | 442 ft | 2 kts | 285° |
| 2026-04-27 01:02 | 15.19548 | 120.56042 | 442 ft | 2 kts | 292° |
| 2026-04-27 01:02 | 15.19541 | 120.56056 | 442 ft | 2 kts | 314° |
| 2026-04-27 01:02 | 15.19529 | 120.56066 | 442 ft | 2 kts | 335° |
| 2026-04-27 01:02 | 15.19514 | 120.56070 | 442 ft | 2 kts | 358° |
| 2026-04-27 01:03 | 15.19499 | 120.56071 | 443 ft | 2 kts | 358° |
| 2026-04-27 01:03 | 15.19484 | 120.56070 | 443 ft | 2 kts | 5° |
| 2026-04-27 01:03 | 15.19469 | 120.56068 | 443 ft | 2 kts | 11° |
| 2026-04-27 01:03 | 15.19454 | 120.56065 | 443 ft | 2 kts | 16° |
| 2026-04-27 01:04 | 15.19440 | 120.56060 | 443 ft | 1 kts | 21° |
| 2026-04-27 01:04 | 15.19437 | 120.56059 | 443 ft | 0 kts | 21° |
| 2026-04-27 01:05 | 15.19450 | 120.56065 | 443 ft | 3 kts | 27° |
| 2026-04-27 01:06 | 15.19471 | 120.56098 | 441 ft | 8 kts | 86° |
| 2026-04-27 01:06 | 15.19449 | 120.56171 | 439 ft | 12 kts | 111° |
| 2026-04-27 01:06 | 15.19414 | 120.56245 | 436 ft | 9 kts | 143° |
| 2026-04-27 01:06 | 15.19344 | 120.56241 | 436 ft | 10 kts | 201° |
| 2026-04-27 01:07 | 15.19277 | 120.56214 | 438 ft | 9 kts | 201° |
| 2026-04-27 01:07 | 15.19220 | 120.56191 | 440 ft | 8 kts | 201° |
| 2026-04-27 01:07 | 15.19117 | 120.56150 | 443 ft | 7 kts | 204° |
| 2026-04-27 01:07 | 15.19091 | 120.56112 | 445 ft | 6 kts | 265° |
| 2026-04-27 01:08 | 15.19100 | 120.56065 | 447 ft | 11 kts | 285° |
| 2026-04-27 01:08 | 15.19065 | 120.56004 | 450 ft | 10 kts | 205° |
| 2026-04-27 01:08 | 15.18322 | 120.55710 | 473 ft | 10 kts | 201° |
| 2026-04-27 01:08 | 15.18253 | 120.55717 | 473 ft | 12 kts | 130° |
| 2026-04-27 01:09 | 15.18212 | 120.55820 | 467 ft | 18 kts | 110° |
| 2026-04-27 01:09 | 15.18160 | 120.55962 | 459 ft | 23 kts | 111° |
| 2026-04-27 01:09 | 15.18135 | 120.56047 | 456 ft | 7 kts | 76° |
| 2026-04-27 01:09 | 15.18157 | 120.56068 | 455 ft | 0 kts | 23° |
| 2026-04-27 01:10 | 15.18190 | 120.56082 | 454 ft | 19 kts | 22° |
| 2026-04-27 01:10 | 15.18626 | 120.56255 | 445 ft | 110 kts | 21° |
| 2026-04-27 01:10 | 15.19577 | 120.56632 | 488 ft | 174 kts | 21° |
| 2026-04-27 01:10 | 15.20706 | 120.57103 | 1269 ft | 180 kts | 23° |
| 2026-04-27 01:11 | 15.21872 | 120.57587 | 2134 ft | 186 kts | 22° |
| 2026-04-27 01:11 | 15.23086 | 120.58078 | 2627 ft | 191 kts | 28° |
| 2026-04-27 01:11 | 15.24039 | 120.59046 | 2893 ft | 203 kts | 68° |
| 2026-04-27 01:11 | 15.24056 | 120.60538 | 3121 ft | 223 kts | 112° |
| 2026-04-27 01:12 | 15.22999 | 120.61762 | 3516 ft | 240 kts | 151° |
| 2026-04-27 01:12 | 15.21419 | 120.62349 | 4171 ft | 243 kts | 161° |
| 2026-04-27 01:12 | 15.19800 | 120.62828 | 4826 ft | 246 kts | 161° |
| 2026-04-27 01:12 | 15.18166 | 120.63345 | 5493 ft | 247 kts | 160° |
| 2026-04-27 01:13 | 15.16515 | 120.63914 | 6154 ft | 249 kts | 159° |
| 2026-04-27 01:13 | 15.14889 | 120.64508 | 6791 ft | 251 kts | 158° |
| 2026-04-27 01:13 | 15.13248 | 120.65128 | 7423 ft | 253 kts | 158° |
| 2026-04-27 01:13 | 15.11594 | 120.65761 | 8046 ft | 255 kts | 158° |
| 2026-04-27 01:14 | 15.09929 | 120.66403 | 8665 ft | 256 kts | 158° |
| 2026-04-27 01:14 | 15.08251 | 120.67055 | 9271 ft | 258 kts | 159° |
| 2026-04-27 01:14 | 15.06567 | 120.67708 | 9853 ft | 260 kts | 159° |
| 2026-04-27 01:14 | 15.04881 | 120.68362 | 10417 ft | 262 kts | 159° |
| 2026-04-27 01:15 | 15.03157 | 120.69032 | 10960 ft | 265 kts | 159° |
| 2026-04-27 01:15 | 15.01430 | 120.69703 | 11493 ft | 267 kts | 159° |
| 2026-04-27 01:15 | 14.99687 | 120.70380 | 12008 ft | 270 kts | 159° |
| 2026-04-27 01:15 | 14.97906 | 120.71072 | 12504 ft | 273 kts | 159° |
| 2026-04-27 01:16 | 14.96146 | 120.71770 | 13013 ft | 275 kts | 156° |
| 2026-04-27 01:16 | 14.94415 | 120.72631 | 13509 ft | 277 kts | 150° |
| 2026-04-27 01:16 | 14.92759 | 120.73682 | 13973 ft | 280 kts | 147° |
| 2026-04-27 01:16 | 14.91114 | 120.74801 | 14419 ft | 284 kts | 147° |
| 2026-04-27 01:17 | 14.89458 | 120.75936 | 14865 ft | 286 kts | 147° |
| 2026-04-27 01:17 | 14.87794 | 120.77073 | 15298 ft | 289 kts | 147° |
| 2026-04-27 01:17 | 14.86105 | 120.78223 | 15730 ft | 292 kts | 147° |
| 2026-04-27 01:17 | 14.84407 | 120.79379 | 16159 ft | 294 kts | 148° |
| 2026-04-27 01:18 | 14.82680 | 120.80554 | 16580 ft | 297 kts | 148° |
| 2026-04-27 01:18 | 14.80952 | 120.81728 | 16972 ft | 300 kts | 148° |
| 2026-04-27 01:18 | 14.79192 | 120.82922 | 17374 ft | 303 kts | 148° |
| 2026-04-27 01:18 | 14.77412 | 120.84129 | 17779 ft | 306 kts | 148° |
| 2026-04-27 01:19 | 14.75619 | 120.85345 | 18187 ft | 308 kts | 148° |
| 2026-04-27 01:19 | 14.73823 | 120.86563 | 18576 ft | 311 kts | 148° |
| 2026-04-27 01:19 | 14.72014 | 120.87790 | 18966 ft | 313 kts | 148° |
| 2026-04-27 01:19 | 14.70185 | 120.89030 | 19350 ft | 316 kts | 148° |
| 2026-04-27 01:20 | 14.68344 | 120.90278 | 19732 ft | 319 kts | 148° |
| 2026-04-27 01:20 | 14.66460 | 120.91555 | 20111 ft | 321 kts | 148° |
| 2026-04-27 01:20 | 14.64581 | 120.92830 | 20483 ft | 324 kts | 148° |
| 2026-04-27 01:20 | 14.62750 | 120.94071 | 20838 ft | 327 kts | 148° |
| 2026-04-27 01:21 | 14.60828 | 120.95375 | 21207 ft | 330 kts | 148° |
| 2026-04-27 01:21 | 14.58902 | 120.96679 | 21570 ft | 333 kts | 148° |
| 2026-04-27 01:21 | 14.56958 | 120.97995 | 21948 ft | 336 kts | 148° |
| 2026-04-27 01:21 | 14.54987 | 120.99331 | 22311 ft | 338 kts | 148° |
| 2026-04-27 01:22 | 14.53034 | 121.00654 | 22641 ft | 342 kts | 147° |
| 2026-04-27 01:22 | 14.51103 | 121.02134 | 22999 ft | 345 kts | 140° |
| 2026-04-27 01:22 | 14.49380 | 121.03866 | 23360 ft | 348 kts | 132° |
| 2026-04-27 01:22 | 14.47800 | 121.05774 | 23713 ft | 351 kts | 130° |
| 2026-04-27 01:23 | 14.46254 | 121.07717 | 24057 ft | 354 kts | 130° |
| 2026-04-27 01:23 | 14.44663 | 121.09719 | 24405 ft | 356 kts | 130° |
| 2026-04-27 01:23 | 14.43099 | 121.11677 | 24747 ft | 359 kts | 130° |
| 2026-04-27 01:23 | 14.41505 | 121.13662 | 25106 ft | 360 kts | 131° |
| 2026-04-27 01:24 | 14.39888 | 121.15668 | 25448 ft | 362 kts | 131° |
| 2026-04-27 01:24 | 14.38291 | 121.17645 | 25784 ft | 364 kts | 131° |
| 2026-04-27 01:24 | 14.36660 | 121.19664 | 26125 ft | 366 kts | 131° |
| 2026-04-27 01:24 | 14.35014 | 121.21699 | 26459 ft | 368 kts | 131° |
| 2026-04-27 01:25 | 14.33380 | 121.23718 | 26776 ft | 370 kts | 131° |
| 2026-04-27 01:25 | 14.31713 | 121.25777 | 27092 ft | 372 kts | 131° |
| 2026-04-27 01:25 | 14.30053 | 121.27827 | 27404 ft | 375 kts | 132° |
| 2026-04-27 01:25 | 14.28387 | 121.29886 | 27706 ft | 377 kts | 132° |
| 2026-04-27 01:26 | 14.26705 | 121.31963 | 28017 ft | 379 kts | 132° |
| 2026-04-27 01:26 | 14.25009 | 121.34061 | 28314 ft | 381 kts | 132° |
| 2026-04-27 01:26 | 14.23322 | 121.36143 | 28607 ft | 383 kts | 132° |
| 2026-04-27 01:26 | 14.21599 | 121.38272 | 28903 ft | 385 kts | 132° |
| 2026-04-27 01:27 | 14.19887 | 121.40386 | 29200 ft | 387 kts | 132° |
| 2026-04-27 01:27 | 14.18151 | 121.42530 | 29496 ft | 389 kts | 132° |
| 2026-04-27 01:27 | 14.16410 | 121.44677 | 29781 ft | 392 kts | 132° |
| 2026-04-27 01:27 | 14.14654 | 121.46841 | 30069 ft | 394 kts | 132° |
| 2026-04-27 01:28 | 14.12888 | 121.49013 | 30348 ft | 396 kts | 132° |
| 2026-04-27 01:28 | 14.11134 | 121.51170 | 30618 ft | 398 kts | 132° |
| 2026-04-27 01:28 | 14.09350 | 121.53362 | 30888 ft | 401 kts | 132° |
| 2026-04-27 01:28 | 14.07544 | 121.55582 | 31156 ft | 403 kts | 132° |
| 2026-04-27 01:29 | 14.05747 | 121.57790 | 31416 ft | 405 kts | 132° |
| 2026-04-27 01:29 | 14.03936 | 121.60017 | 31673 ft | 407 kts | 132° |
| 2026-04-27 01:29 | 14.02104 | 121.62267 | 31930 ft | 409 kts | 132° |
| 2026-04-27 01:29 | 14.00282 | 121.64507 | 32183 ft | 411 kts | 132° |
| 2026-04-27 01:30 | 13.98448 | 121.66760 | 32429 ft | 413 kts | 133° |
| 2026-04-27 01:30 | 13.96584 | 121.69052 | 32673 ft | 415 kts | 133° |
| 2026-04-27 01:30 | 13.94746 | 121.71310 | 32922 ft | 417 kts | 133° |
| 2026-04-27 01:30 | 13.92869 | 121.73612 | 33172 ft | 419 kts | 133° |
| 2026-04-27 01:31 | 13.90983 | 121.75925 | 33426 ft | 421 kts | 133° |
| 2026-04-27 01:31 | 13.89095 | 121.78212 | 33663 ft | 422 kts | 134° |
| 2026-04-27 01:31 | 13.87080 | 121.80403 | 33896 ft | 423 kts | 138° |
| 2026-04-27 01:31 | 13.84918 | 121.82454 | 34119 ft | 423 kts | 142° |
| 2026-04-27 01:32 | 13.82601 | 121.84358 | 34358 ft | 423 kts | 146° |
| 2026-04-27 01:32 | 13.80226 | 121.86158 | 34583 ft | 424 kts | 147° |
| 2026-04-27 01:32 | 13.77853 | 121.87938 | 34800 ft | 426 kts | 147° |
| 2026-04-27 01:32 | 13.75456 | 121.89734 | 34927 ft | 430 kts | 146° |
| 2026-04-27 01:33 | 13.73030 | 121.91554 | 34928 ft | 436 kts | 146° |
| 2026-04-27 01:33 | 13.68033 | 121.95312 | 34929 ft | 448 kts | 146° |
| 2026-04-27 01:34 | 13.62968 | 121.99129 | 34929 ft | 456 kts | 146° |
| 2026-04-27 01:34 | 13.57842 | 122.02992 | 34933 ft | 456 kts | 146° |
| 2026-04-27 01:35 | 13.52711 | 122.06857 | 34934 ft | 456 kts | 146° |
| 2026-04-27 01:35 | 13.47598 | 122.10703 | 34934 ft | 456 kts | 146° |
| 2026-04-27 01:36 | 13.42498 | 122.14539 | 34939 ft | 456 kts | 146° |
| 2026-04-27 01:36 | 13.37387 | 122.18382 | 34941 ft | 455 kts | 146° |
| 2026-04-27 01:37 | 13.32279 | 122.22220 | 34938 ft | 455 kts | 146° |
| 2026-04-27 01:37 | 13.27173 | 122.26054 | 34931 ft | 455 kts | 146° |
| 2026-04-27 01:38 | 13.22059 | 122.29893 | 34928 ft | 455 kts | 146° |
| 2026-04-27 01:38 | 13.16943 | 122.33731 | 34924 ft | 454 kts | 146° |
| 2026-04-27 01:39 | 13.11866 | 122.37537 | 34922 ft | 453 kts | 146° |
| 2026-04-27 01:39 | 13.06776 | 122.41351 | 34919 ft | 453 kts | 146° |
| 2026-04-27 01:40 | 13.01684 | 122.45164 | 34919 ft | 453 kts | 146° |
| 2026-04-27 01:40 | 12.96557 | 122.49003 | 34917 ft | 453 kts | 146° |
| 2026-04-27 01:41 | 12.91480 | 122.52801 | 34915 ft | 453 kts | 146° |
| 2026-04-27 01:41 | 12.86378 | 122.56617 | 34915 ft | 453 kts | 146° |
| 2026-04-27 01:42 | 12.81282 | 122.60426 | 34913 ft | 453 kts | 146° |
| 2026-04-27 01:42 | 12.76201 | 122.64223 | 34908 ft | 453 kts | 146° |
| 2026-04-27 01:43 | 12.71107 | 122.68025 | 34907 ft | 453 kts | 146° |
| 2026-04-27 01:43 | 12.66028 | 122.71816 | 34906 ft | 453 kts | 146° |
| 2026-04-27 01:44 | 12.60937 | 122.75613 | 34906 ft | 453 kts | 146° |
| 2026-04-27 01:44 | 12.55859 | 122.79401 | 34906 ft | 453 kts | 146° |
| 2026-04-27 01:45 | 12.50741 | 122.83215 | 34905 ft | 453 kts | 146° |
| 2026-04-27 01:45 | 12.45644 | 122.87013 | 34907 ft | 453 kts | 146° |
| 2026-04-27 01:46 | 12.40563 | 122.90797 | 34906 ft | 452 kts | 146° |
| 2026-04-27 01:46 | 12.35473 | 122.94586 | 34905 ft | 452 kts | 145° |
| 2026-04-27 01:47 | 12.30387 | 122.98369 | 34908 ft | 452 kts | 146° |
| 2026-04-27 01:47 | 12.25296 | 123.02146 | 34904 ft | 452 kts | 146° |
| 2026-04-27 01:48 | 12.20195 | 123.05932 | 34907 ft | 453 kts | 146° |
| 2026-04-27 01:48 | 12.15124 | 123.09694 | 34907 ft | 453 kts | 145° |
| 2026-04-27 01:49 | 12.09996 | 123.13500 | 34912 ft | 453 kts | 145° |
| 2026-04-27 01:49 | 12.04890 | 123.17287 | 34827 ft | 453 kts | 145° |
| 2026-04-27 01:49 | 12.02372 | 123.19154 | 34528 ft | 451 kts | 145° |
| 2026-04-27 01:50 | 11.99844 | 123.21030 | 34234 ft | 448 kts | 145° |
| 2026-04-27 01:50 | 11.97313 | 123.22905 | 33942 ft | 445 kts | 145° |
| 2026-04-27 01:50 | 11.94828 | 123.24746 | 33653 ft | 443 kts | 145° |
| 2026-04-27 01:50 | 11.92337 | 123.26592 | 33366 ft | 444 kts | 145° |
| 2026-04-27 01:51 | 11.89842 | 123.28440 | 33077 ft | 445 kts | 145° |
| 2026-04-27 01:51 | 11.87332 | 123.30299 | 32790 ft | 445 kts | 145° |
| 2026-04-27 01:51 | 11.84849 | 123.32137 | 32518 ft | 446 kts | 145° |
| 2026-04-27 01:51 | 11.82301 | 123.34022 | 32262 ft | 447 kts | 145° |
| 2026-04-27 01:52 | 11.79817 | 123.35859 | 32013 ft | 447 kts | 145° |
| 2026-04-27 01:52 | 11.77290 | 123.37728 | 31761 ft | 448 kts | 145° |
| 2026-04-27 01:52 | 11.74739 | 123.39615 | 31506 ft | 448 kts | 145° |
| 2026-04-27 01:52 | 11.72226 | 123.41473 | 31255 ft | 449 kts | 145° |
| 2026-04-27 01:53 | 11.69719 | 123.43327 | 31006 ft | 449 kts | 145° |
| 2026-04-27 01:53 | 11.67186 | 123.45200 | 30753 ft | 448 kts | 145° |
| 2026-04-27 01:53 | 11.64662 | 123.47065 | 30501 ft | 447 kts | 145° |
| 2026-04-27 01:53 | 11.62128 | 123.48937 | 30247 ft | 445 kts | 145° |
| 2026-04-27 01:54 | 11.59626 | 123.50785 | 29995 ft | 444 kts | 145° |
| 2026-04-27 01:54 | 11.57115 | 123.52639 | 29743 ft | 443 kts | 145° |
| 2026-04-27 01:54 | 11.54625 | 123.54479 | 29475 ft | 441 kts | 145° |
| 2026-04-27 01:54 | 11.52161 | 123.56296 | 29197 ft | 439 kts | 145° |
| 2026-04-27 01:55 | 11.49698 | 123.58114 | 28853 ft | 438 kts | 145° |
| 2026-04-27 01:55 | 11.47221 | 123.59943 | 28417 ft | 435 kts | 145° |
| 2026-04-27 01:55 | 11.44773 | 123.61748 | 27950 ft | 432 kts | 145° |
| 2026-04-27 01:55 | 11.42363 | 123.63525 | 27473 ft | 428 kts | 145° |
| 2026-04-27 01:56 | 11.37570 | 123.67057 | 26494 ft | 421 kts | 145° |
| 2026-04-27 01:56 | 11.35211 | 123.68796 | 26006 ft | 417 kts | 144° |
| 2026-04-27 01:56 | 11.32873 | 123.70518 | 25513 ft | 414 kts | 144° |
| 2026-04-27 01:57 | 11.30552 | 123.72228 | 25026 ft | 411 kts | 144° |
| 2026-04-27 01:57 | 11.28241 | 123.73930 | 24538 ft | 408 kts | 144° |
| 2026-04-27 01:57 | 11.25956 | 123.75614 | 24050 ft | 406 kts | 144° |
| 2026-04-27 01:57 | 11.23665 | 123.77303 | 23565 ft | 403 kts | 143° |
| 2026-04-27 01:58 | 11.21398 | 123.78973 | 23096 ft | 400 kts | 143° |
| 2026-04-27 01:58 | 11.19155 | 123.80624 | 22619 ft | 397 kts | 143° |
| 2026-04-27 01:58 | 11.16951 | 123.82246 | 22164 ft | 394 kts | 143° |
| 2026-04-27 01:58 | 11.14539 | 123.83604 | 21664 ft | 393 kts | 161° |
| 2026-04-27 01:59 | 11.11829 | 123.83948 | 21191 ft | 393 kts | 183° |
| 2026-04-27 01:59 | 11.09183 | 123.83380 | 20740 ft | 391 kts | 195° |
| 2026-04-27 01:59 | 11.06556 | 123.82604 | 20278 ft | 389 kts | 195° |
| 2026-04-27 01:59 | 11.03973 | 123.81839 | 19827 ft | 387 kts | 195° |
| 2026-04-27 02:00 | 11.01402 | 123.81092 | 19368 ft | 385 kts | 195° |
| 2026-04-27 02:00 | 10.98800 | 123.80351 | 18895 ft | 384 kts | 194° |
| 2026-04-27 02:00 | 10.96256 | 123.79633 | 18433 ft | 383 kts | 194° |
| 2026-04-27 02:00 | 10.93662 | 123.78905 | 17964 ft | 381 kts | 194° |
| 2026-04-27 02:01 | 10.91132 | 123.78198 | 17506 ft | 380 kts | 193° |
| 2026-04-27 02:01 | 10.88542 | 123.77756 | 16984 ft | 378 kts | 183° |
| 2026-04-27 02:01 | 10.85891 | 123.77637 | 16409 ft | 379 kts | 180° |
| 2026-04-27 02:01 | 10.83277 | 123.77570 | 15804 ft | 372 kts | 180° |
| 2026-04-27 02:02 | 10.80728 | 123.77491 | 15199 ft | 362 kts | 180° |
| 2026-04-27 02:02 | 10.78233 | 123.77393 | 14594 ft | 352 kts | 180° |
| 2026-04-27 02:02 | 10.75825 | 123.77284 | 14009 ft | 345 kts | 180° |
| 2026-04-27 02:02 | 10.73418 | 123.77166 | 13430 ft | 347 kts | 181° |
| 2026-04-27 02:03 | 10.70980 | 123.77042 | 12912 ft | 348 kts | 181° |
| 2026-04-27 02:03 | 10.68558 | 123.76914 | 12453 ft | 346 kts | 181° |
| 2026-04-27 02:03 | 10.66179 | 123.76786 | 12021 ft | 344 kts | 181° |
| 2026-04-27 02:03 | 10.63790 | 123.76656 | 11594 ft | 341 kts | 181° |
| 2026-04-27 02:04 | 10.61427 | 123.76527 | 11170 ft | 338 kts | 181° |
| 2026-04-27 02:04 | 10.59089 | 123.76399 | 10747 ft | 336 kts | 181° |
| 2026-04-27 02:04 | 10.56752 | 123.76272 | 10334 ft | 333 kts | 181° |
| 2026-04-27 02:04 | 10.54476 | 123.76146 | 10178 ft | 321 kts | 181° |
| 2026-04-27 02:05 | 10.52257 | 123.76022 | 10049 ft | 308 kts | 180° |
| 2026-04-27 02:05 | 10.50137 | 123.75906 | 9814 ft | 301 kts | 180° |
| 2026-04-27 02:05 | 10.48059 | 123.75794 | 9421 ft | 299 kts | 180° |
| 2026-04-27 02:05 | 10.46018 | 123.75683 | 9050 ft | 288 kts | 180° |
| 2026-04-27 02:06 | 10.44022 | 123.75574 | 8697 ft | 283 kts | 180° |
| 2026-04-27 02:06 | 10.42074 | 123.75468 | 8354 ft | 281 kts | 180° |
| 2026-04-27 02:06 | 10.40095 | 123.75359 | 8006 ft | 279 kts | 180° |
| 2026-04-27 02:06 | 10.38185 | 123.75256 | 7669 ft | 277 kts | 180° |
| 2026-04-27 02:07 | 10.36267 | 123.75151 | 7334 ft | 275 kts | 180° |
| 2026-04-27 02:07 | 10.34346 | 123.75047 | 6995 ft | 273 kts | 180° |
| 2026-04-27 02:07 | 10.32463 | 123.74944 | 6662 ft | 271 kts | 180° |
| 2026-04-27 02:07 | 10.30575 | 123.74842 | 6325 ft | 269 kts | 180° |
| 2026-04-27 02:08 | 10.28686 | 123.74739 | 5981 ft | 264 kts | 180° |
| 2026-04-27 02:08 | 10.26875 | 123.74641 | 5659 ft | 261 kts | 180° |
| 2026-04-27 02:08 | 10.25054 | 123.74541 | 5329 ft | 259 kts | 180° |
| 2026-04-27 02:08 | 10.23270 | 123.74583 | 4972 ft | 255 kts | 163° |
| 2026-04-27 02:09 | 10.21705 | 123.75375 | 4635 ft | 248 kts | 137° |
| 2026-04-27 02:09 | 10.20495 | 123.76578 | 4335 ft | 245 kts | 132° |
| 2026-04-27 02:09 | 10.19319 | 123.77814 | 4019 ft | 244 kts | 132° |
| 2026-04-27 02:09 | 10.18136 | 123.79044 | 3709 ft | 241 kts | 132° |
| 2026-04-27 02:10 | 10.16975 | 123.80241 | 3416 ft | 230 kts | 130° |
| 2026-04-27 02:10 | 10.16225 | 123.81570 | 3276 ft | 211 kts | 99° |
| 2026-04-27 02:10 | 10.16287 | 123.82998 | 3313 ft | 197 kts | 75° |
| 2026-04-27 02:10 | 10.16914 | 123.84175 | 3182 ft | 185 kts | 53° |
| 2026-04-27 02:11 | 10.17781 | 123.85093 | 2976 ft | 177 kts | 46° |
| 2026-04-27 02:11 | 10.18661 | 123.85922 | 2785 ft | 168 kts | 46° |
| 2026-04-27 02:11 | 10.19497 | 123.86716 | 2589 ft | 159 kts | 46° |
| 2026-04-27 02:11 | 10.20273 | 123.87466 | 2376 ft | 151 kts | 47° |
| 2026-04-27 02:12 | 10.21015 | 123.88199 | 2168 ft | 148 kts | 48° |
| 2026-04-27 02:12 | 10.21742 | 123.88922 | 1971 ft | 143 kts | 48° |
| 2026-04-27 02:12 | 10.22443 | 123.89623 | 1837 ft | 140 kts | 47° |
| 2026-04-27 02:12 | 10.23135 | 123.90314 | 1664 ft | 139 kts | 48° |
| 2026-04-27 02:13 | 10.23825 | 123.91006 | 1496 ft | 138 kts | 47° |
| 2026-04-27 02:13 | 10.24512 | 123.91697 | 1332 ft | 138 kts | 46° |
| 2026-04-27 02:13 | 10.25196 | 123.92381 | 1163 ft | 138 kts | 46° |
| 2026-04-27 02:13 | 10.25887 | 123.93071 | 993 ft | 139 kts | 47° |
| 2026-04-27 02:14 | 10.26569 | 123.93759 | 833 ft | 139 kts | 46° |
| 2026-04-27 02:14 | 10.27258 | 123.94447 | 680 ft | 138 kts | 45° |
| 2026-04-27 02:14 | 10.27956 | 123.95122 | 519 ft | 140 kts | 47° |
| 2026-04-27 02:14 | 10.28650 | 123.95826 | 366 ft | 140 kts | 47° |
| 2026-04-27 02:15 | 10.29359 | 123.96536 | 175 ft | 141 kts | 47° |
| 2026-04-27 02:15 | 10.30045 | 123.97229 | 37 ft | 135 kts | 46° |
| 2026-04-27 02:15 | 10.30500 | 123.97688 | 37 ft | 59 kts | 45° |